createdAt,value
2019-01-31T08:03:06.057Z,26.11
2019-01-31T08:04:05.377Z,26.01
2019-01-31T08:05:05.551Z,26.11
2019-01-31T08:06:05.989Z,26.13
2019-01-31T08:07:05.897Z,26.27
2019-01-31T08:10:14.335Z,26.31
2019-01-31T08:11:12.932Z,26.39
2019-01-31T08:12:12.885Z,26.31
2019-01-31T08:13:13.363Z,26.29
2019-01-31T08:14:13.367Z,26.41
2019-01-31T08:15:13.368Z,26.53
2019-01-31T08:16:13.438Z,26.59
2019-01-31T08:17:12.720Z,26.56
2019-01-31T08:18:12.686Z,26.49
2019-01-31T08:19:14.792Z,26.56
2019-01-31T08:20:12.615Z,26.52
2019-01-31T08:21:12.620Z,26.52
2019-01-31T08:22:12.628Z,26.59
2019-01-31T08:23:12.619Z,26.45
2019-01-31T08:24:12.549Z,26.53
2019-01-31T08:25:12.543Z,26.64
2019-01-31T08:26:12.653Z,26.66
2019-01-31T08:27:12.447Z,26.66
2019-01-31T08:28:13.017Z,26.64
2019-01-31T08:29:12.458Z,26.53
2019-01-31T08:30:12.430Z,26.64
2019-01-31T08:31:12.349Z,26.82
2019-01-31T08:32:12.411Z,26.67
2019-01-31T08:33:12.381Z,26.68
2019-01-31T08:34:12.377Z,26.76
2019-01-31T08:35:12.878Z,26.67
2019-01-31T08:36:12.270Z,26.53
2019-01-31T08:37:12.414Z,26.61
2019-01-31T08:38:14.560Z,26.63
2019-01-31T08:39:12.223Z,26.68
2019-01-31T08:40:12.685Z,26.71
2019-01-31T08:41:12.158Z,26.60
2019-01-31T08:42:12.239Z,26.70
2019-01-31T08:43:13.713Z,26.86
2019-01-31T08:44:13.189Z,26.61
2019-01-31T08:45:12.571Z,26.61
2019-01-31T08:46:12.843Z,26.49
2019-01-31T08:47:13.274Z,26.39
2019-01-31T08:48:12.961Z,26.48
2019-01-31T08:49:13.636Z,26.44
2019-01-31T08:50:12.513Z,26.51
2019-01-31T08:51:11.982Z,26.44
2019-01-31T08:52:11.948Z,26.36
2019-01-31T08:53:11.928Z,26.37
2019-01-31T08:54:11.961Z,26.37
2019-01-31T08:55:12.025Z,26.30
2019-01-31T08:56:11.848Z,26.23
2019-01-31T08:57:12.076Z,26.30
2019-01-31T08:58:11.831Z,26.22
2019-01-31T08:59:11.792Z,26.24
2019-01-31T09:00:11.831Z,26.27
2019-01-31T09:01:11.287Z,26.24
2019-01-31T09:02:12.517Z,26.24
2019-01-31T09:03:11.709Z,26.11
2019-01-31T09:04:11.682Z,26.22
2019-01-31T09:05:11.712Z,26.15
2019-01-31T09:06:11.659Z,26.06
2019-01-31T09:07:11.576Z,26.16
2019-01-31T09:08:11.594Z,26.13
2019-01-31T09:09:11.624Z,26.07
2019-01-31T09:10:11.646Z,26.08
2019-01-31T09:11:11.519Z,26.04
2019-01-31T09:12:15.377Z,26.11
2019-01-31T09:13:11.536Z,26.01
2019-01-31T09:14:11.433Z,26.07
2019-01-31T09:15:11.499Z,26.03
2019-01-31T09:16:11.471Z,26.07
2019-01-31T09:17:13.208Z,26.04
2019-01-31T09:18:13.237Z,25.95
2019-01-31T09:19:11.359Z,26.01
2019-01-31T09:20:11.377Z,25.96
2019-01-31T09:21:12.088Z,25.99
2019-01-31T09:22:11.412Z,26.08
2019-01-31T09:23:11.262Z,26.04
2019-01-31T09:24:13.343Z,25.92
2019-01-31T09:25:11.204Z,25.95
2019-01-31T09:26:11.226Z,26.07
2019-01-31T09:27:11.228Z,25.93
2019-01-31T09:28:10.972Z,25.86
2019-01-31T09:29:11.103Z,25.98
2019-01-31T09:30:10.825Z,25.93
2019-01-31T09:31:11.056Z,25.83
2019-01-31T09:32:11.150Z,26.03
2019-01-31T09:33:10.718Z,26.04
2019-01-31T09:34:10.979Z,25.96
2019-01-31T09:35:10.941Z,26.01
2019-01-31T09:36:11.864Z,25.93
2019-01-31T09:37:11.027Z,25.86
2019-01-31T09:38:10.936Z,25.92
2019-01-31T09:39:10.241Z,25.89
2019-01-31T09:40:10.884Z,25.91
2019-01-31T09:41:10.864Z,25.93
2019-01-31T09:42:10.800Z,25.85
2019-01-31T09:43:10.881Z,25.91
2019-01-31T09:44:10.786Z,25.86
2019-01-31T09:45:10.826Z,25.85
2019-01-31T09:46:10.692Z,25.92
2019-01-31T09:47:10.720Z,25.91
2019-01-31T09:48:10.711Z,25.92
2019-01-31T09:49:10.810Z,25.88
2019-01-31T09:50:10.629Z,25.83
2019-01-31T09:51:10.647Z,25.77
2019-01-31T09:52:10.631Z,25.78
2019-01-31T09:53:10.548Z,25.80
2019-01-31T09:54:10.540Z,25.92
2019-01-31T09:55:10.660Z,25.81
2019-01-31T09:56:10.552Z,25.85
2019-01-31T09:57:10.456Z,25.86
2019-01-31T09:58:11.616Z,25.80
2019-01-31T09:59:10.464Z,25.80
2019-01-31T10:00:10.382Z,25.78
2019-01-31T10:01:11.501Z,25.85
2019-01-31T10:02:10.427Z,25.81
2019-01-31T10:03:12.179Z,25.74
2019-01-31T10:04:10.996Z,25.80
2019-01-31T10:05:10.806Z,25.78
2019-01-31T10:06:10.342Z,25.80
2019-01-31T10:07:10.426Z,25.80
2019-01-31T10:08:10.238Z,25.77
2019-01-31T10:09:10.240Z,25.74
2019-01-31T10:10:10.075Z,25.70
2019-01-31T10:11:10.240Z,25.63
2019-01-31T10:12:10.189Z,25.71
2019-01-31T10:13:10.855Z,25.74
2019-01-31T10:14:10.126Z,25.81
2019-01-31T10:15:10.128Z,25.71
2019-01-31T10:16:10.097Z,25.83
2019-01-31T10:17:10.057Z,25.77
2019-01-31T10:18:10.147Z,25.68
2019-01-31T10:19:09.366Z,25.71
2019-01-31T10:20:10.079Z,25.76
2019-01-31T10:21:10.579Z,25.66
2019-01-31T10:22:10.024Z,25.74
2019-01-31T10:23:09.299Z,25.73
2019-01-31T10:24:10.015Z,25.76
2019-01-31T10:25:09.922Z,25.71
2019-01-31T10:26:11.906Z,25.78
2019-01-31T10:27:09.877Z,25.71
2019-01-31T10:28:09.909Z,25.70
2019-01-31T10:29:09.806Z,25.67
2019-01-31T10:30:15.199Z,25.71
2019-01-31T10:31:11.066Z,25.77
2019-01-31T10:32:09.565Z,25.70
2019-01-31T10:33:09.671Z,25.68
2019-01-31T10:34:09.662Z,25.67
2019-01-31T10:35:09.675Z,25.71
2019-01-31T10:36:09.745Z,25.61
2019-01-31T10:37:09.627Z,25.63
2019-01-31T10:38:09.582Z,25.70
2019-01-31T10:39:09.533Z,25.68
2019-01-31T10:40:09.507Z,25.66
2019-01-31T10:41:09.600Z,25.76
2019-01-31T10:42:09.521Z,25.70
2019-01-31T10:43:09.435Z,25.66
2019-01-31T10:44:09.137Z,25.66
2019-01-31T10:45:09.421Z,25.67
2019-01-31T10:46:09.517Z,25.62
2019-01-31T10:47:09.844Z,25.68
2019-01-31T10:48:09.345Z,25.63
2019-01-31T10:49:10.476Z,25.68
2019-01-31T10:50:08.634Z,25.68
